Alne, United Kingdom
Current Conditions -  °F | °C
As of 2:50 AM on Saturday 29 Nov 2014 (Local Time) from EGXU Reporting Station
Overcast Overcast  
Wind Chill: 45°   Ceiling: 800
Heat Index: 48°   Visibility: 1.4mi
Dew Point: 48°   Wind: 7mph
Humidity: 100%   Direction: 50°NE
Pressure: 29.83"   Gusts: NA
Location:  54.08°N, 1.1°W
Report Text: EGXU 290250Z AUTO 05006KT 2300 // OVC008/// 09/09 Q1010
Loading
Personal Weather Stations






























Interactive Weather Map New forecast layout! Learn more

10-Day Weather Forecast

Advertisements
Track Severe Weather on mobile